EDT,Max TemperatureF,Mean TemperatureF,Min TemperatureF,Max Dew PointF,MeanDew PointF,Min DewpointF,Max Humidity, Mean Humidity, Min Humidity, Max Sea Level PressureIn, Mean Sea Level PressureIn, Min Sea Level PressureIn, Max VisibilityMiles, Mean VisibilityMiles, Min VisibilityMiles, Max Wind SpeedMPH, Mean Wind SpeedMPH, Max Gust SpeedMPH,PrecipitationIn, CloudCover, Events, WindDirDegrees
2013-10-1,81,65,48,60,56,47,100,73,45,30.05,30.01,29.94,10,10,9,15,5,20,0.00,0,,272
2013-10-2,85,71,57,61,60,57,100,72,43,30.05,30.01,29.97,10,10,7,16,7,24,0.00,0,,261
2013-10-3,80,69,58,65,59,52,93,68,42,30.13,30.09,30.05,10,9,4,12,4,14,0.00,0,,143
2013-10-4,87,73,58,65,61,57,100,72,44,30.09,30.06,30.01,10,6,0,13,4,17,0.00,1,Fog,210
2013-10-5,81,72,62,67,65,61,100,84,67,30.09,30.06,30.04,9,5,3,13,6,16,0.00,4,,101
2013-10-6,80,72,63,68,65,32,100,84,67,30.08,30.06,30.02,10,5,0,16,8,21,0.00,4,Fog,134
2013-10-7,78,68,58,69,66,56,97,88,79,30.04,29.93,29.85,10,10,2,26,12,37,0.19,6,Rain,210
2013-10-8,65,57,48,55,48,45,93,71,48,30.29,30.21,30.06,10,10,10,18,8,23,0.00,1,,355
2013-10-9,64,58,51,54,50,46,86,75,64,30.31,30.27,30.22,10,10,7,26,15,36,0.03,5,Rain,47
2013-10-10,60,59,57,60,59,55,100,97,93,30.20,30.07,29.96,10,4,1,26,19,35,1.62,8,Rain,45
2013-10-11,61,60,59,61,58,32,100,100,100,30.01,29.95,29.92,10,4,1,26,18,39,1.54,8,Rain,53
2013-10-12,68,64,59,61,59,57,100,87,73,30.19,30.10,30.01,10,7,2,26,18,34,0.76,8,Rain,44
2013-10-13,66,59,51,59,54,51,97,80,63,30.34,30.29,30.19,10,10,6,28,16,34,T,7,,55
2013-10-14,67,57,47,55,51,47,100,82,63,30.34,30.30,30.26,10,10,6,16,6,18,0.00,3,,36
2013-10-15,70,57,44,56,48,43,100,70,39,30.25,30.18,30.10,10,10,10,16,5,20,0.00,2,,46
2013-10-16,70,63,56,60,58,54,100,87,73,30.10,30.03,29.95,10,8,0,10,5,14,T,7,,67
2013-10-17,73,66,59,64,61,59,100,87,73,29.94,29.88,29.76,10,8,0,14,7,28,0.08,5,Rain,199
2013-10-18,68,56,43,64,47,42,87,65,42,30.03,29.92,29.75,10,10,10,22,9,30,0.00,1,,277
2013-10-19,64,53,41,59,48,39,100,76,52,30.02,29.92,29.80,10,10,8,14,4,21,0.03,3,Rain,183
2013-10-20,63,52,41,54,39,33,82,58,34,30.11,29.99,29.83,10,10,10,24,9,31,0.00,0,,293
2013-10-21,66,51,36,46,39,34,93,62,31,30.18,30.11,30.01,10,10,7,15,3,20,0.00,0,,185
2013-10-22,71,57,43,51,46,42,93,67,41,30.00,29.87,29.80,10,10,10,18,6,23,0.00,1,,268
2013-10-23,51,46,40,48,44,37,100,83,66,29.83,29.72,29.62,10,8,2,12,6,15,0.55,7,Rain,317
2013-10-24,53,44,34,37,32,26,92,65,38,30.09,29.98,29.83,10,10,9,22,9,27,0.00,2,,267
2013-10-25,55,44,33,34,31,29,89,65,41,30.30,30.19,30.09,10,10,10,21,8,27,0.00,0,,278
2013-10-26,57,45,32,38,32,27,89,62,35,30.29,30.15,29.95,10,10,10,24,8,30,0.00,1,,225
2013-10-27,59,47,35,37,33,30,82,58,33,30.18,30.02,29.93,10,10,10,20,8,25,0.00,2,,269
2013-10-28,62,47,31,47,38,28,96,70,43,30.30,30.24,30.16,10,10,10,13,2,17,0.00,0,,185
2013-10-29,61,50,39,47,42,37,96,76,55,30.38,30.34,30.29,10,10,10,17,6,22,0.00,1,,43
2013-10-30,57,49,41,54,48,40,100,93,86,30.30,30.25,30.21,10,6,0,7,1,9,0.09,6,Fog-Rain,177
2013-10-31,67,57,46,62,54,46,100,87,73,30.23,30.12,29.87,10,5,0,16,8,23,0.02,5,Fog-Rain,172